Time;durP1;ratioP1;P1;durP2;ratioP2;P2;SDS_P1;SDS_P2;PMS_P1;PMS_P2;Temp;Humidity;BMP_temperature;BMP_pressure;BME280_temperature;BME280_humidity;BME280_pressure;Samples;Min_cycle;Max_cycle;Signal;HPM_P1;HPM_P2
2023/06/29 00:02:19;;;;;;;28.83;21.92;;;;;;;20.05;100.00;101481.25;5013692;28;20539;-59
2023/06/29 00:04:49;;;;;;;29.95;22.00;;;;;;;20.05;100.00;101480.41;5013446;28;20054;-59
2023/06/29 00:07:17;;;;;;;29.00;21.05;;;;;;;19.92;100.00;101481.59;5017422;28;20042;-59
2023/06/29 00:09:47;;;;;;;30.25;22.20;;;;;;;19.88;100.00;101479.38;5017452;28;20045;-59
2023/06/29 00:12:17;;;;;;;32.70;23.30;;;;;;;19.93;100.00;101482.41;5019765;28;20053;-59
2023/06/29 00:14:45;;;;;;;29.17;22.10;;;;;;;19.96;100.00;101476.81;5018662;28;20041;-59
2023/06/29 00:17:14;;;;;;;29.98;21.80;;;;;;;19.93;100.00;101477.06;5016068;28;20103;-59
2023/06/29 00:19:47;;;;;;;30.73;22.30;;;;;;;19.88;100.00;101474.84;5014402;28;20072;-59
2023/06/29 00:22:16;;;;;;;;;;;;;;;19.82;100.00;101471.94;5019186;28;20108;-59
2023/06/29 00:24:44;;;;;;;27.77;20.63;;;;;;;19.81;100.00;101472.91;5015896;28;19944;-59
2023/06/29 00:27:13;;;;;;;28.45;21.80;;;;;;;19.79;100.00;101478.38;5014964;28;20048;-59
2023/06/29 00:29:44;;;;;;;34.17;23.10;;;;;;;19.73;100.00;101470.97;5013839;28;20049;-59
2023/06/29 00:32:12;;;;;;;27.40;22.90;;;;;;;19.70;100.00;101469.41;5018721;28;20091;-59
2023/06/29 00:34:44;;;;;;;28.85;21.77;;;;;;;19.61;100.00;101470.28;5016181;28;20740;-59
2023/06/29 00:37:12;;;;;;;29.10;22.35;;;;;;;19.61;100.00;101472.94;5019924;28;20077;-59
2023/06/29 00:39:40;;;;;;;29.08;22.42;;;;;;;19.57;100.00;101463.53;5021338;28;20041;-59
2023/06/29 00:42:09;;;;;;;30.75;22.38;;;;;;;19.41;100.00;101465.00;5025063;28;20046;-59
2023/06/29 00:44:37;;;;;;;28.80;22.48;;;;;;;19.39;100.00;101463.44;5020757;28;20073;-59
2023/06/29 00:47:08;;;;;;;30.80;22.77;;;;;;;19.35;100.00;101465.53;5019940;28;20056;-59
2023/06/29 00:49:36;;;;;;;30.92;23.00;;;;;;;19.32;100.00;101460.50;5018768;28;20415;-59
2023/06/29 00:52:05;;;;;;;28.70;22.85;;;;;;;19.28;100.00;101459.09;5016885;28;20050;-59
2023/06/29 00:54:33;;;;;;;30.15;23.15;;;;;;;19.22;100.00;101460.53;5024924;28;20038;-58
2023/06/29 00:57:01;;;;;;;30.17;24.13;;;;;;;19.22;100.00;101449.00;5025981;28;20049;-59
2023/06/29 00:59:30;;;;;;;29.33;22.98;;;;;;;19.18;100.00;101448.47;5015126;28;20477;-59
2023/06/29 01:01:58;;;;;;;30.70;24.65;;;;;;;19.15;100.00;101445.22;5020669;28;20038;-58
2023/06/29 01:04:28;;;;;;;32.13;23.88;;;;;;;19.14;100.00;101444.41;5019261;28;20105;-59
2023/06/29 01:07:03;;;;;;;29.83;23.80;;;;;;;19.10;100.00;101437.63;5021554;28;20087;-59
2023/06/29 01:09:33;;;;;;;35.53;26.83;;;;;;;19.11;100.00;101434.00;5020695;28;20103;-58
2023/06/29 01:12:03;;;;;;;30.55;24.30;;;;;;;19.13;100.00;101440.03;5020513;28;20045;-59
2023/06/29 01:14:34;;;;;;;32.63;24.83;;;;;;;19.13;100.00;101437.38;5023500;28;20512;-59
2023/06/29 01:17:03;;;;;;;31.17;25.00;;;;;;;19.01;100.00;101434.00;5019055;28;20048;-59
2023/06/29 01:19:34;;;;;;;35.22;26.25;;;;;;;18.99;100.00;101433.31;5019206;28;20069;-59
2023/06/29 01:22:05;;;;;;;35.90;26.30;;;;;;;18.94;100.00;101432.91;5013594;28;20045;-59
2023/06/29 01:24:40;;;;;;;32.97;25.40;;;;;;;18.93;100.00;101436.53;5018098;28;20104;-58
2023/06/29 01:27:08;;;;;;;32.22;25.00;;;;;;;18.89;100.00;101433.28;5017035;28;20045;-58
2023/06/29 01:29:37;;;;;;;33.95;27.20;;;;;;;18.83;100.00;101432.97;5019352;28;20560;-58
2023/06/29 01:32:07;;;;;;;35.15;28.08;;;;;;;18.81;100.00;101437.63;5021591;28;20034;-58
2023/06/29 01:34:37;;;;;;;36.00;28.05;;;;;;;18.74;100.00;101426.69;5013785;28;20052;-57
2023/06/29 01:37:10;;;;;;;35.63;28.75;;;;;;;18.67;100.00;101433.56;5017213;28;20050;-59
2023/06/29 01:39:47;;;;;;;35.50;26.13;;;;;;;18.70;100.00;101430.59;5013942;28;20038;-59
2023/06/29 01:42:16;;;;;;;40.55;29.38;;;;;;;18.72;100.00;101426.00;5018266;28;20046;-59
2023/06/29 01:44:44;;;;;;;37.28;28.52;;;;;;;18.75;100.00;101423.03;5019488;28;20057;-59
2023/06/29 01:47:13;;;;;;;36.30;27.52;;;;;;;18.78;100.00;101422.75;5017123;28;20479;-59
2023/06/29 01:49:42;;;;;;;38.90;30.42;;;;;;;18.82;100.00;101428.66;5018064;28;20103;-58
2023/06/29 01:52:10;;;;;;;35.80;28.40;;;;;;;18.73;100.00;101415.19;5022704;28;20037;-58
2023/06/29 01:54:39;;;;;;;42.47;32.15;;;;;;;18.76;100.00;101422.06;5017139;28;20394;-59
2023/06/29 01:57:08;;;;;;;41.58;32.10;;;;;;;18.73;100.00;101419.66;5015240;28;20049;-59
2023/06/29 01:59:37;;;;;;;41.40;31.33;;;;;;;18.71;100.00;101422.47;5017611;28;20488;-59
2023/06/29 02:02:06;;;;;;;39.65;30.73;;;;;;;18.70;100.00;101415.44;5020459;28;20052;-59
2023/06/29 02:04:34;;;;;;;38.90;30.73;;;;;;;18.75;100.00;101417.72;5019907;28;20050;-59
2023/06/29 02:07:02;;;;;;;43.28;31.40;;;;;;;18.81;100.00;101414.47;5016116;28;20072;-59
2023/06/29 02:09:31;;;;;;;44.92;34.33;;;;;;;18.81;100.00;101413.63;5020049;28;20080;-59
2023/06/29 02:12:00;;;;;;;42.05;33.47;;;;;;;18.85;100.00;101415.03;5021282;28;20422;-59
2023/06/29 02:14:30;;;;;;;41.10;32.47;;;;;;;18.84;100.00;101418.69;5018069;28;20052;-59
2023/06/29 02:17:01;;;;;;;42.13;33.10;;;;;;;18.91;100.00;101417.19;5018433;28;20401;-59
2023/06/29 02:19:29;;;;;;;40.25;31.95;;;;;;;18.90;100.00;101416.34;5017225;28;20059;-59
2023/06/29 02:21:57;;;;;;;42.00;32.33;;;;;;;18.91;100.00;101415.34;5018555;28;20046;-59
2023/06/29 02:24:25;;;;;;;45.05;34.20;;;;;;;18.88;100.00;101415.66;5017854;28;20049;-59
2023/06/29 02:26:53;;;;;;;41.60;34.60;;;;;;;18.91;100.00;101415.34;5017890;28;20049;-59
2023/06/29 02:29:23;;;;;;;44.28;33.00;;;;;;;18.90;100.00;101410.16;5018292;28;20412;-60
2023/06/29 02:31:52;;;;;;;43.85;34.78;;;;;;;18.91;100.00;101406.53;5009234;28;20037;-59
2023/06/29 02:34:23;;;;;;;42.22;32.20;;;;;;;18.94;100.00;101406.25;5021150;28;20096;-59
2023/06/29 02:36:51;;;;;;;42.85;33.47;;;;;;;18.96;100.00;101401.59;5025018;28;20049;-59
2023/06/29 02:39:19;;;;;;;41.88;33.70;;;;;;;18.97;100.00;101403.28;5027338;28;20069;-59
2023/06/29 02:41:47;;;;;;;42.88;33.67;;;;;;;19.01;100.00;101399.34;5028065;28;20038;-59
2023/06/29 02:44:16;;;;;;;45.40;34.72;;;;;;;19.02;100.00;101395.72;5020542;28;20057;-59
2023/06/29 02:46:45;;;;;;;45.35;33.97;;;;;;;19.03;100.00;101388.53;5014301;28;20497;-59
2023/06/29 02:49:15;;;;;;;44.05;34.03;;;;;;;19.05;100.00;101389.25;5019693;28;20416;-59
2023/06/29 02:51:43;;;;;;;44.63;34.92;;;;;;;19.06;100.00;101382.91;5015702;28;20453;-59
2023/06/29 02:54:11;;;;;;;48.60;36.33;;;;;;;19.05;100.00;101382.09;5020034;28;20096;-59
2023/06/29 02:56:39;;;;;;;46.33;35.45;;;;;;;19.05;100.00;101383.94;5019720;28;20044;-59
2023/06/29 02:59:07;;;;;;;43.15;34.38;;;;;;;19.05;100.00;101381.25;5019050;28;20045;-59
2023/06/29 03:01:36;;;;;;;46.33;34.63;;;;;;;19.07;100.00;101373.94;5017840;28;20064;-59
2023/06/29 03:04:05;;;;;;;44.35;34.90;;;;;;;19.05;100.00;101375.94;5016956;28;20056;-58
2023/06/29 03:06:34;;;;;;;45.63;34.63;;;;;;;19.11;100.00;101369.19;5013486;28;20745;-59
2023/06/29 03:09:03;;;;;;;43.60;33.72;;;;;;;19.12;100.00;101366.38;5015230;28;20401;-58
2023/06/29 03:11:31;;;;;;;44.75;34.67;;;;;;;19.11;100.00;101361.19;5012301;28;20803;-58
2023/06/29 03:13:59;;;;;;;42.88;34.17;;;;;;;19.09;100.00;101361.34;5015450;28;20484;-58
2023/06/29 03:16:27;;;;;;;44.15;34.55;;;;;;;19.13;100.00;101362.72;5015916;28;20408;-58
2023/06/29 03:18:55;;;;;;;47.10;37.70;;;;;;;19.08;100.00;101357.81;5016372;28;20045;-58
2023/06/29 03:21:25;;;;;;;47.58;35.67;;;;;;;19.05;100.00;101360.78;5017519;28;20038;-58
2023/06/29 03:23:53;;;;;;;46.53;34.75;;;;;;;19.05;100.00;101359.94;5012518;28;20068;-58
2023/06/29 03:26:21;;;;;;;44.72;36.45;;;;;;;19.05;100.00;101367.94;5014948;28;20362;-59
2023/06/29 03:28:49;;;;;;;43.90;34.00;;;;;;;19.04;100.00;101360.91;5018937;28;20056;-58
2023/06/29 03:31:18;;;;;;;43.25;34.03;;;;;;;19.09;100.00;101356.00;5016035;28;20525;-58
2023/06/29 03:33:46;;;;;;;41.22;34.30;;;;;;;19.06;100.00;101356.28;5017467;28;20046;-58
2023/06/29 03:36:15;;;;;;;42.55;33.67;;;;;;;19.04;100.00;101352.94;5017771;28;20057;-58
2023/06/29 03:38:44;;;;;;;44.33;35.17;;;;;;;19.09;100.00;101350.69;5011446;28;20068;-58
2023/06/29 03:41:13;;;;;;;45.70;35.08;;;;;;;19.08;100.00;101356.97;5013175;28;20049;-58
2023/06/29 03:43:41;;;;;;;46.50;35.33;;;;;;;19.05;100.00;101352.78;5013248;28;20511;-58
2023/06/29 03:46:09;;;;;;;41.90;35.60;;;;;;;19.07;100.00;101347.28;5017213;28;20061;-58
2023/06/29 03:48:37;;;;;;;44.85;35.63;;;;;;;19.01;100.00;101354.03;5015758;28;20052;-58
2023/06/29 03:51:06;;;;;;;44.22;35.25;;;;;;;19.07;100.00;101349.97;5021510;28;20086;-58
2023/06/29 03:53:34;;;;;;;44.70;35.78;;;;;;;19.08;100.00;101354.31;5021221;28;20048;-58
2023/06/29 03:56:04;;;;;;;47.03;36.40;;;;;;;19.14;100.00;101348.44;5017331;28;20041;-58
2023/06/29 03:58:32;;;;;;;48.05;37.80;;;;;;;19.15;100.00;101346.59;5015348;28;20080;-58
2023/06/29 04:01:00;;;;;;;48.55;36.22;;;;;;;19.20;100.00;101342.50;5018923;28;20050;-58
2023/06/29 04:03:31;;;;;;;45.10;35.50;;;;;;;19.20;100.00;101344.34;5018938;28;20141;-58
2023/06/29 04:06:00;;;;;;;43.63;35.50;;;;;;;19.18;100.00;101348.97;5018008;28;20075;-59
2023/06/29 04:08:28;;;;;;;47.03;35.80;;;;;;;19.23;100.00;101338.72;5015798;28;20108;-59
2023/06/29 04:10:56;;;;;;;44.53;36.17;;;;;;;19.22;100.00;101339.69;5023731;28;20039;-58
2023/06/29 04:13:26;;;;;;;43.92;34.38;;;;;;;19.24;100.00;101329.72;5022876;28;20098;-58
2023/06/29 04:15:54;;;;;;;41.08;35.88;;;;;;;19.26;100.00;101333.06;5018223;28;20104;-59
2023/06/29 04:18:22;;;;;;;48.80;36.65;;;;;;;19.29;100.00;101332.78;5020144;28;20052;-58
2023/06/29 04:20:51;;;;;;;44.03;36.22;;;;;;;19.28;100.00;101325.78;5019880;28;20053;-59
2023/06/29 04:23:19;;;;;;;46.95;35.25;;;;;;;19.32;100.00;101324.50;5018182;28;20432;-59
2023/06/29 04:25:48;;;;;;;46.85;36.05;;;;;;;19.29;100.00;101324.78;5018977;28;20050;-58
2023/06/29 04:28:16;;;;;;;42.17;33.53;;;;;;;19.29;100.00;101322.13;5019487;28;20054;-58
2023/06/29 04:30:45;;;;;;;43.35;35.95;;;;;;;19.29;100.00;101322.13;5023086;28;20038;-58
2023/06/29 04:33:15;;;;;;;43.75;35.83;;;;;;;19.28;100.00;101320.47;5017773;28;20069;-58
2023/06/29 04:35:44;;;;;;;46.75;36.47;;;;;;;19.34;100.00;101330.53;5025756;28;20060;-58
2023/06/29 04:38:13;;;;;;;43.60;35.67;;;;;;;19.34;100.00;101325.19;5019975;28;20046;-58
2023/06/29 04:40:42;;;;;;;43.60;36.08;;;;;;;19.32;100.00;101318.31;5023448;28;20080;-58
2023/06/29 04:43:12;;;;;;;43.88;36.83;;;;;;;19.31;100.00;101325.50;5020036;28;20051;-58
2023/06/29 04:45:40;;;;;;;44.03;35.75;;;;;;;19.32;100.00;101324.50;5021769;28;20059;-58
2023/06/29 04:48:11;;;;;;;43.42;34.25;;;;;;;19.37;100.00;101316.91;5020435;28;20523;-59
2023/06/29 04:50:39;;;;;;;45.28;37.17;;;;;;;19.41;100.00;101320.97;5019372;28;20057;-59
2023/06/29 04:53:12;;;;;;;43.50;36.08;;;;;;;19.47;100.00;101321.34;5020990;28;20049;-58
2023/06/29 04:55:43;;;;;;;46.08;35.42;;;;;;;19.48;100.00;101320.38;5023765;28;20080;-59
2023/06/29 04:58:12;;;;;;;45.80;35.35;;;;;;;19.45;100.00;101313.50;5024315;28;20121;-58
2023/06/29 05:00:40;;;;;;;44.10;36.47;;;;;;;19.47;100.00;101322.22;5020585;28;20042;-58
2023/06/29 05:03:12;;;;;;;44.80;35.90;;;;;;;19.51;100.00;101317.41;5021042;28;20112;-59
2023/06/29 05:05:40;;;;;;;42.42;35.83;;;;;;;19.52;100.00;101313.75;5020789;28;20492;-59
2023/06/29 05:08:09;;;;;;;42.15;34.53;;;;;;;19.51;100.00;101315.59;5024129;28;20066;-59
2023/06/29 05:10:40;;;;;;;45.60;37.17;;;;;;;19.54;100.00;101311.81;5023235;28;20041;-58
2023/06/29 05:13:08;;;;;;;43.55;34.85;;;;;;;19.53;100.00;101320.78;5018141;28;20497;-59
2023/06/29 05:15:36;;;;;;;41.80;35.70;;;;;;;19.52;100.00;101308.41;5021119;28;20523;-59
2023/06/29 05:18:05;;;;;;;41.80;33.40;;;;;;;19.58;100.00;101307.84;5022885;28;20049;-59
2023/06/29 05:20:34;;;;;;;42.67;34.58;;;;;;;19.59;100.00;101317.50;5027586;28;20052;-59
2023/06/29 05:23:03;;;;;;;42.95;34.40;;;;;;;19.59;100.00;101314.84;5018465;28;20137;-59
2023/06/29 05:25:31;;;;;;;43.55;34.72;;;;;;;19.65;100.00;101308.09;5020470;28;20595;-58
2023/06/29 05:27:59;;;;;;;40.47;33.60;;;;;;;19.65;100.00;101308.94;5019013;28;20140;-58
2023/06/29 05:30:27;;;;;;;40.72;33.42;;;;;;;19.62;100.00;101303.03;5020722;28;20135;-59
2023/06/29 05:32:55;;;;;;;40.55;34.05;;;;;;;19.67;100.00;101304.25;5022503;28;20734;-59
2023/06/29 05:35:24;;;;;;;36.90;32.53;;;;;;;19.70;100.00;101295.13;5022072;28;20048;-59
2023/06/29 05:37:53;;;;;;;43.90;33.55;;;;;;;19.70;100.00;101296.00;5016596;28;20502;-59
2023/06/29 05:40:21;;;;;;;39.20;31.92;;;;;;;19.69;100.00;101299.63;5018858;28;20064;-58
2023/06/29 05:42:50;;;;;;;38.17;30.08;;;;;;;19.74;100.00;101304.50;5022981;28;20046;-58
2023/06/29 05:45:18;;;;;;;40.45;32.42;;;;;;;19.76;100.00;101295.38;5017477;28;20179;-60
2023/06/29 05:47:46;;;;;;;38.75;32.20;;;;;;;19.76;100.00;101286.53;5018138;28;20447;-59
2023/06/29 05:50:16;;;;;;;43.47;31.92;;;;;;;19.81;100.00;101291.44;5014172;28;20042;-60
2023/06/29 05:52:45;;;;;;;42.92;31.92;;;;;;;19.88;100.00;101292.56;5021019;28;20121;-59
2023/06/29 05:55:16;;;;;;;41.08;33.05;;;;;;;19.98;100.00;101293.31;5018590;28;20118;-60
2023/06/29 05:57:45;;;;;;;38.42;31.77;;;;;;;20.02;100.00;101288.53;5017599;28;20081;-59
2023/06/29 06:00:14;;;;;;;42.65;31.75;;;;;;;20.03;100.00;101291.03;5020812;28;20535;-61
2023/06/29 06:02:42;;;;;;;37.53;30.05;;;;;;;20.09;100.00;101293.09;5016314;28;20486;-59
2023/06/29 06:05:11;;;;;;;43.88;32.65;;;;;;;20.10;100.00;101289.44;5018677;28;20124;-59
2023/06/29 06:07:39;;;;;;;39.25;31.23;;;;;;;20.15;100.00;101289.00;5021064;28;20045;-59
2023/06/29 06:10:08;;;;;;;40.85;32.28;;;;;;;20.26;100.00;101290.59;5021116;28;20045;-59
2023/06/29 06:12:38;;;;;;;40.08;31.70;;;;;;;20.30;100.00;101291.09;5011706;28;20054;-59
2023/06/29 06:15:11;;;;;;;38.80;29.08;;;;;;;20.38;100.00;101296.53;5024229;28;20050;-60
2023/06/29 06:17:39;;;;;;;39.20;30.85;;;;;;;20.39;100.00;101291.03;5010651;28;20058;-59
2023/06/29 06:20:09;;;;;;;37.38;30.85;;;;;;;20.39;100.00;101283.00;5010010;28;20515;-59
2023/06/29 06:22:37;;;;;;;37.72;29.58;;;;;;;20.43;100.00;101287.06;5025287;28;20045;-59
2023/06/29 06:25:06;;;;;;;40.78;30.45;;;;;;;20.56;100.00;101291.16;5028983;28;20037;-59
2023/06/29 06:27:34;;;;;;;37.80;29.42;;;;;;;20.66;100.00;101289.25;5016510;28;20058;-58
2023/06/29 06:30:05;;;;;;;34.22;28.40;;;;;;;20.74;100.00;101286.66;5009648;28;20049;-59
2023/06/29 06:32:33;;;;;;;39.40;29.63;;;;;;;20.79;100.00;101280.00;5008981;28;20072;-59
2023/06/29 06:35:03;;;;;;;32.70;26.70;;;;;;;20.92;100.00;101278.59;5005345;28;20042;-59
2023/06/29 06:37:32;;;;;;;34.47;26.85;;;;;;;20.89;100.00;101286.09;5017138;28;20153;-59
2023/06/29 06:40:00;;;;;;;36.53;27.65;;;;;;;20.98;100.00;101293.16;5013803;28;20535;-59
2023/06/29 06:42:28;;;;;;;33.75;25.40;;;;;;;21.01;100.00;101292.88;5011652;28;20066;-58
2023/06/29 06:44:56;;;;;;;35.22;27.17;;;;;;;21.00;100.00;101288.50;5009813;28;20489;-59
2023/06/29 06:47:26;;;;;;;38.08;26.90;;;;;;;21.08;100.00;101291.22;5016527;28;20437;-59
2023/06/29 06:49:54;;;;;;;35.83;26.65;;;;;;;21.14;100.00;101288.94;5015984;28;20551;-58
2023/06/29 06:52:22;;;;;;;32.28;24.52;;;;;;;21.14;100.00;101296.94;5020610;28;20050;-59
2023/06/29 06:54:50;;;;;;;37.70;24.75;;;;;;;21.10;100.00;101283.91;5015833;28;20490;-58
2023/06/29 06:57:18;;;;;;;32.22;24.08;;;;;;;21.18;100.00;101285.75;5018440;28;20068;-59
2023/06/29 06:59:47;;;;;;;31.50;22.95;;;;;;;21.27;100.00;101284.81;5022283;28;20052;-58
2023/06/29 07:02:15;;;;;;;30.10;22.83;;;;;;;21.36;100.00;101284.84;5018127;28;20396;-59
2023/06/29 07:04:46;;;;;;;32.92;23.08;;;;;;;21.45;100.00;101284.72;5022689;28;20514;-58
2023/06/29 07:07:15;;;;;;;32.17;22.58;;;;;;;21.49;100.00;101287.91;5011413;28;20054;-58
2023/06/29 07:09:46;;;;;;;30.40;22.42;;;;;;;21.56;100.00;101294.31;5009867;28;20046;-60
2023/06/29 07:12:14;;;;;;;31.67;22.35;;;;;;;21.56;100.00;101286.31;5019098;28;20057;-59
2023/06/29 07:14:42;;;;;;;28.38;22.15;;;;;;;21.65;100.00;101281.84;5015057;28;20030;-59
2023/06/29 07:17:10;;;;;;;32.00;21.75;;;;;;;21.82;100.00;101292.59;5018240;28;20068;-59
2023/06/29 07:19:38;;;;;;;30.75;21.33;;;;;;;21.88;100.00;101291.91;5009311;28;20053;-59
2023/06/29 07:22:11;;;;;;;31.70;22.05;;;;;;;21.95;100.00;101292.94;5011895;28;20433;-58
2023/06/29 07:24:42;;;;;;;28.95;21.20;;;;;;;22.04;100.00;101294.63;5015552;28;20034;-60
2023/06/29 07:27:10;;;;;;;28.23;21.23;;;;;;;22.18;100.00;101289.63;5026068;28;20392;-59
2023/06/29 07:29:42;;;;;;;31.90;22.50;;;;;;;22.20;100.00;101291.13;5021302;28;20053;-58
2023/06/29 07:32:10;;;;;;;32.00;21.57;;;;;;;22.34;100.00;101287.00;5015921;28;20058;-59
2023/06/29 07:34:39;;;;;;;29.45;20.70;;;;;;;22.43;100.00;101286.00;5015012;28;20049;-60
2023/06/29 07:37:07;;;;;;;29.92;21.98;;;;;;;22.43;100.00;101291.34;5016105;28;20048;-59
2023/06/29 07:39:36;;;;;;;28.85;21.58;;;;;;;22.54;100.00;101289.34;5013527;28;20038;-57
2023/06/29 07:42:05;;;;;;;27.80;20.30;;;;;;;22.55;100.00;101283.81;5023611;28;20554;-60
2023/06/29 07:44:33;;;;;;;30.60;22.17;;;;;;;22.65;100.00;101285.50;5012686;28;20056;-59
2023/06/29 07:47:01;;;;;;;29.60;22.45;;;;;;;22.61;100.00;101285.00;5007351;28;20046;-59
2023/06/29 07:49:29;;;;;;;28.40;21.83;;;;;;;22.74;100.00;101284.47;5011874;28;20038;-59
2023/06/29 07:51:58;;;;;;;31.10;21.35;;;;;;;22.79;100.00;101280.25;5025198;28;20053;-58
2023/06/29 07:54:27;;;;;;;32.67;22.50;;;;;;;22.70;100.00;101281.31;5007293;28;20520;-59
2023/06/29 07:56:56;;;;;;;28.67;20.92;;;;;;;22.78;100.00;101281.28;5029368;28;20049;-58
2023/06/29 07:59:27;;;;;;;28.83;20.27;;;;;;;22.81;100.00;101284.63;5019328;28;20792;-59
2023/06/29 08:01:55;;;;;;;27.55;20.35;;;;;;;22.82;100.00;101276.41;5007978;28;20061;-59
2023/06/29 08:04:24;;;;;;;28.95;20.85;;;;;;;22.88;100.00;101282.94;5020995;28;20077;-58
2023/06/29 08:06:55;;;;;;;28.27;20.83;;;;;;;22.89;100.00;101282.78;5008991;28;20485;-59
2023/06/29 08:09:26;;;;;;;27.83;19.48;;;;;;;22.96;100.00;101286.44;4988547;28;20054;-59
2023/06/29 08:11:54;;;;;;;26.30;19.52;;;;;;;23.01;100.00;101280.56;4991331;28;20121;-57
2023/06/29 08:14:23;;;;;;;28.38;20.00;;;;;;;23.06;100.00;101280.06;5007607;28;20424;-58
2023/06/29 08:16:52;;;;;;;27.65;19.98;;;;;;;23.13;100.00;101276.53;5011390;28;20045;-58
2023/06/29 08:19:20;;;;;;;26.67;19.73;;;;;;;23.18;100.00;101267.13;5031258;28;20042;-57
2023/06/29 08:21:49;;;;;;;29.42;19.38;;;;;;;23.27;100.00;101276.81;5028998;28;20064;-57
2023/06/29 08:24:17;;;;;;;27.23;18.88;;;;;;;23.32;100.00;101269.09;5010607;28;20030;-58
2023/06/29 08:26:45;;;;;;;23.27;17.58;;;;;;;23.48;100.00;101267.34;5011097;28;20389;-60
2023/06/29 08:29:13;;;;;;;25.77;19.20;;;;;;;23.58;100.00;101262.59;5023696;28;20123;-59
2023/06/29 08:31:43;;;;;;;22.23;17.30;;;;;;;23.61;100.00;101267.63;5018130;28;20071;-58
2023/06/29 08:34:11;;;;;;;23.83;17.88;;;;;;;23.59;100.00;101264.28;5006047;28;20050;-59
2023/06/29 08:36:39;;;;;;;23.38;17.25;;;;;;;23.73;100.00;101255.47;5017492;28;20046;-59
2023/06/29 08:39:08;;;;;;;22.75;17.30;;;;;;;23.82;100.00;101258.09;5018184;28;20034;-59
2023/06/29 08:41:37;;;;;;;22.80;17.25;;;;;;;23.99;100.00;101259.69;5023219;28;20088;-57
2023/06/29 08:44:06;;;;;;;24.08;17.45;;;;;;;24.13;100.00;101261.63;5011574;28;20042;-58
2023/06/29 08:46:38;;;;;;;23.33;17.23;;;;;;;24.05;100.00;101253.63;5014260;28;20413;-57
2023/06/29 08:49:09;;;;;;;20.58;16.52;;;;;;;24.21;100.00;101258.03;5019591;28;20037;-59
2023/06/29 08:51:40;;;;;;;23.52;16.48;;;;;;;24.17;100.00;101259.41;5018079;28;20049;-59
2023/06/29 08:54:09;;;;;;;23.23;17.20;;;;;;;24.34;100.00;101257.44;5010078;28;20062;-57
2023/06/29 08:56:37;;;;;;;22.40;16.50;;;;;;;24.63;100.00;101262.06;5010873;28;20568;-57
2023/06/29 08:59:06;;;;;;;23.55;17.23;;;;;;;24.82;100.00;101253.66;5030082;28;20151;-59
2023/06/29 09:01:35;;;;;;;21.15;15.77;;;;;;;25.04;100.00;101260.78;5018057;28;20732;-57
2023/06/29 09:04:06;;;;;;;21.52;15.93;;;;;;;25.18;100.00;101251.03;5010187;28;20081;-58
2023/06/29 09:06:36;;;;;;;22.65;16.25;;;;;;;25.35;100.00;101254.41;5013495;28;20041;-58
2023/06/29 09:09:06;;;;;;;19.48;15.48;;;;;;;25.42;100.00;101255.31;4996946;28;20468;-58
2023/06/29 09:11:36;;;;;;;22.25;16.15;;;;;;;25.54;100.00;101252.97;5013295;28;20041;-59
2023/06/29 09:14:07;;;;;;;22.35;15.80;;;;;;;25.66;100.00;101250.63;5014790;28;20397;-59
2023/06/29 09:16:35;;;;;;;21.55;16.15;;;;;;;25.89;100.00;101255.84;5011439;28;20060;-59
2023/06/29 09:19:05;;;;;;;19.83;15.70;;;;;;;25.98;100.00;101259.25;5011418;28;20140;-58
2023/06/29 09:21:33;;;;;;;20.90;15.73;;;;;;;26.13;100.00;101249.25;5011360;28;20046;-57
2023/06/29 09:24:04;;;;;;;22.08;16.55;;;;;;;25.97;100.00;101252.19;5010959;28;20129;-57
2023/06/29 09:26:33;;;;;;;21.42;15.65;;;;;;;26.03;100.00;101256.00;5014757;28;20555;-58
2023/06/29 09:29:03;;;;;;;22.23;17.27;;;;;;;26.18;100.00;101248.69;5010783;28;20349;-57
2023/06/29 09:31:35;;;;;;;23.98;18.33;;;;;;;26.27;100.00;101250.22;5009981;28;20048;-57
2023/06/29 09:34:17;;;;;;;22.88;17.08;;;;;;;26.45;100.00;101243.50;5014239;28;20050;-59
2023/06/29 09:36:46;;;;;;;24.67;18.33;;;;;;;26.52;100.00;101232.78;5015729;28;20054;-60
2023/06/29 09:39:16;;;;;;;24.02;17.25;;;;;;;26.57;100.00;101233.84;5029835;28;20041;-59
2023/06/29 09:41:49;;;;;;;26.05;17.65;;;;;;;26.65;100.00;101236.41;5022311;28;20366;-59
2023/06/29 09:44:19;;;;;;;21.45;16.30;;;;;;;26.85;100.00;101232.22;5029338;28;20045;-58
2023/06/29 09:46:48;;;;;;;21.02;15.93;;;;;;;26.99;100.00;101229.34;5013167;28;20050;-58
2023/06/29 09:49:19;;;;;;;19.45;14.50;;;;;;;27.29;100.00;101223.69;5011869;28;20393;-59
2023/06/29 09:51:49;;;;;;;19.30;15.15;;;;;;;27.43;100.00;101229.16;5014368;28;20737;-58
2023/06/29 09:54:19;;;;;;;19.55;15.30;;;;;;;27.57;100.00;101230.88;5010805;28;20042;-58
2023/06/29 09:56:50;;;;;;;20.20;15.35;;;;;;;27.77;100.00;101227.38;5010800;28;20440;-58
2023/06/29 09:59:20;;;;;;;25.17;16.55;;;;;;;27.96;100.00;101228.44;5026508;28;20388;-58
2023/06/29 10:01:48;;;;;;;19.95;15.63;;;;;;;28.22;100.00;101221.44;5032488;28;20053;-58
2023/06/29 10:04:16;;;;;;;20.48;15.77;;;;;;;28.67;100.00;101218.91;5033014;28;20057;-58
2023/06/29 10:06:49;;;;;;;20.10;15.40;;;;;;;29.00;100.00;101218.81;5030372;28;20052;-60
2023/06/29 10:09:21;;;;;;;18.88;15.02;;;;;;;28.99;100.00;101221.75;5016022;28;20103;-58
2023/06/29 10:11:51;;;;;;;19.60;15.05;;;;;;;29.05;98.71;101230.88;5013150;28;20051;-59
2023/06/29 10:14:20;;;;;;;20.70;15.93;;;;;;;28.66;98.06;101223.50;5022187;28;20500;-59
2023/06/29 10:16:53;;;;;;;20.77;15.30;;;;;;;28.50;97.98;101226.63;5029367;28;20500;-59
2023/06/29 10:19:23;;;;;;;21.52;15.93;;;;;;;28.41;98.55;101230.56;5018947;28;20061;-59
2023/06/29 10:21:56;;;;;;;20.08;16.15;;;;;;;28.38;97.75;101226.41;5010260;28;20050;-59
2023/06/29 10:24:31;;;;;;;21.02;16.35;;;;;;;28.40;95.85;101228.91;5020496;28;20045;-60
2023/06/29 10:27:02;;;;;;;22.13;16.27;;;;;;;28.22;96.56;101221.44;5031652;28;20064;-60
2023/06/29 10:29:30;;;;;;;21.67;16.95;;;;;;;28.44;95.91;101213.91;5019977;28;20037;-60
2023/06/29 10:31:59;;;;;;;22.83;17.13;;;;;;;28.34;95.15;101217.88;5007900;28;20061;-60
2023/06/29 10:34:28;;;;;;;21.63;16.40;;;;;;;28.44;94.77;101212.06;5011313;28;20057;-60
2023/06/29 10:37:00;;;;;;;22.45;16.08;;;;;;;28.32;96.06;101211.88;5009960;28;20830;-60
2023/06/29 10:39:44;;;;;;;20.58;15.77;;;;;;;28.35;97.77;101216.03;5010186;28;20104;-60
2023/06/29 10:42:13;;;;;;;20.45;15.80;;;;;;;28.56;96.30;101208.72;5009809;28;20112;-60
2023/06/29 10:44:44;;;;;;;22.67;17.35;;;;;;;28.50;93.81;101207.69;5013534;28;20064;-60
2023/06/29 10:47:27;;;;;;;20.95;16.45;;;;;;;28.71;98.14;101214.75;5028964;28;20046;-60
2023/06/29 10:50:18;;;;;;;22.83;17.50;;;;;;;28.36;92.54;101212.28;5017527;28;20492;-61
2023/06/29 10:52:49;;;;;;;21.35;16.73;;;;;;;28.15;93.69;101208.75;5028865;28;20412;-59
2023/06/29 10:55:19;;;;;;;23.00;17.83;;;;;;;28.40;92.08;101202.72;5014265;28;20539;-60
2023/06/29 10:57:49;;;;;;;19.40;15.18;;;;;;;28.35;88.95;101202.50;5014037;28;20060;-60
2023/06/29 11:00:17;;;;;;;19.88;15.35;;;;;;;28.33;87.84;101200.00;5025450;28;20072;-57
2023/06/29 11:02:48;;;;;;;17.65;13.45;;;;;;;28.36;85.44;101196.06;5032761;28;20041;-60
2023/06/29 11:05:18;;;;;;;19.00;14.07;;;;;;;28.58;89.09;101199.34;5019842;28;20073;-60
2023/06/29 11:07:50;;;;;;;18.63;12.55;;;;;;;28.64;85.21;101197.69;5025110;28;20065;-58
2023/06/29 11:10:21;;;;;;;17.33;12.95;;;;;;;28.33;81.14;101193.75;5028538;28;20050;-58
2023/06/29 11:12:51;;;;;;;18.70;14.43;;;;;;;28.63;85.24;101193.28;5028608;28;20103;-59